Portada
METAR-TAF:

METAR-TAF

Aeroports :

East Hampton Airport

East Hampton, Nova York, Estats Units d'Amèrica

latitud: 40-57-34N, longitud: 072-15-07W, altitud: 17 m

Observació

L'informe es va fer fa 34 minuts, a les 17:35 UTC
Vent 5 kt del Nord
Temperatura 22°C
Humitat 43%
Pressió 1021 hPa
Visibilitat: 16.1 km
Núvols disperses a una alçada de 4700 ft

METAR: KHTO 241735Z AUTO 01005KT 10SM SCT047 22/09 A3016 RMK AO2 T02230085

Hora: 14:09 (18:09 UTC)


TAF: manca

Observacions i pronòstics meteorològics de més de 4000 aeroports (METAR i TAF).

Les estacions disponibles són els punts grocs i vermells al mapa.

Posi el ratolí al punt desitjat per veure el nom de l'estació.

Feu clic per veure les observacions i els pronòstics meteorològics.

Per canviar el mapa: feu clic els botons verds amb una creu de color negre per apropar; al botó verd amb un guió per allunyar la imatge; o en les fletxes verdes per a mapes adjacents.


METAR-TAF: